Time;durP1;ratioP1;P1;durP2;ratioP2;P2;SDS_P1;SDS_P2;PMS_P1;PMS_P2;Temp;Humidity;BMP_temperature;BMP_pressure;BME280_temperature;BME280_humidity;BME280_pressure;Samples;Min_cycle;Max_cycle;Signal;HPM_P1;HPM_P2
2023/10/26 00:02:01;;;;;;;87.63;36.90;;;10.70;99.90;;;;;;5056096;28;20033;-67
2023/10/26 00:04:27;;;;;;;89.22;36.03;;;10.80;99.90;;;;;;5056648;28;20025;-68
2023/10/26 00:06:53;;;;;;;89.22;36.92;;;10.60;99.90;;;;;;5056361;28;20017;-68
2023/10/26 00:09:18;;;;;;;85.65;35.70;;;10.60;99.90;;;;;;5056596;28;20474;-68
2023/10/26 00:11:44;;;;;;;77.60;34.10;;;10.70;99.90;;;;;;5056565;28;20114;-68
2023/10/26 00:14:09;;;;;;;73.03;33.15;;;10.80;99.90;;;;;;5056503;28;20074;-68
2023/10/26 00:16:35;;;;;;;79.82;34.15;;;10.60;99.90;;;;;;5056475;28;20029;-68
2023/10/26 00:19:02;;;;;;;70.65;31.65;;;10.70;99.90;;;;;;5056641;28;20033;-68
2023/10/26 00:21:27;;;;;;;69.93;30.27;;;10.60;99.90;;;;;;5056319;28;20039;-68
2023/10/26 00:23:53;;;;;;;62.50;28.73;;;10.70;99.90;;;;;;5056593;28;20530;-68
2023/10/26 00:26:18;;;;;;;66.53;29.40;;;10.60;99.90;;;;;;5055999;28;20039;-68
2023/10/26 00:28:44;;;;;;;64.18;29.10;;;10.70;99.90;;;;;;5055984;28;20036;-68
2023/10/26 00:31:09;;;;;;;72.30;30.83;;;10.70;99.90;;;;;;5056100;28;20364;-68
2023/10/26 00:33:35;;;;;;;63.22;31.20;;;10.60;99.90;;;;;;5056062;28;20455;-68
2023/10/26 00:36:00;;;;;;;65.97;31.23;;;10.60;99.90;;;;;;5056048;28;20387;-68
2023/10/26 00:38:26;;;;;;;71.63;31.38;;;10.70;99.90;;;;;;5055595;28;20056;-68
2023/10/26 00:40:51;;;;;;;76.57;33.80;;;10.70;99.90;;;;;;5055341;28;20056;-68
2023/10/26 00:43:20;;;;;;;66.85;31.40;;;10.70;99.90;;;;;;5055742;28;20021;-69
2023/10/26 00:45:49;;;;;;;66.57;31.15;;;10.70;99.90;;;;;;5056094;28;20036;-68
2023/10/26 00:48:14;;;;;;;60.55;29.92;;;10.70;99.90;;;;;;5055976;28;20376;-68
2023/10/26 00:50:41;;;;;;;57.63;28.77;;;10.50;99.90;;;;;;5056072;28;20031;-68
2023/10/26 00:53:08;;;;;;;66.97;31.10;;;10.50;99.90;;;;;;5055876;28;20378;-68
2023/10/26 00:55:34;;;;;;;58.92;29.10;;;10.50;99.90;;;;;;5055935;28;20025;-68
2023/10/26 00:57:59;;;;;;;60.50;28.77;;;10.60;99.90;;;;;;5055697;28;20032;-68
2023/10/26 01:00:27;;;;;;;52.80;27.45;;;10.50;99.90;;;;;;5055809;28;20116;-68
2023/10/26 01:02:53;;;;;;;58.97;28.52;;;10.40;99.90;;;;;;5055310;28;20123;-68
2023/10/26 01:05:18;;;;;;;56.33;27.23;;;10.40;99.90;;;;;;5055701;28;20394;-68
2023/10/26 01:07:44;;;;;;;54.92;27.77;;;10.40;99.90;;;;;;5055533;28;20080;-68
2023/10/26 01:10:10;;;;;;;53.15;27.58;;;10.10;99.90;;;;;;5055120;28;20024;-68
2023/10/26 01:12:36;;;;;;;54.17;28.00;;;10.40;99.90;;;;;;5055659;28;20029;-69
2023/10/26 01:15:02;;;;;;;55.10;27.25;;;10.30;99.90;;;;;;5055309;28;20035;-68
2023/10/26 01:17:29;;;;;;;50.90;27.80;;;10.40;99.90;;;;;;5055245;28;20032;-68
2023/10/26 01:19:54;;;;;;;47.67;25.50;;;10.40;99.90;;;;;;5055241;28;20033;-68
2023/10/26 01:22:20;;;;;;;50.42;27.77;;;10.50;99.90;;;;;;5054949;28;20028;-68
2023/10/26 01:24:45;;;;;;;44.45;25.40;;;10.50;99.90;;;;;;5055055;28;20103;-68
2023/10/26 01:27:11;;;;;;;49.10;26.42;;;10.30;99.90;;;;;;5054954;28;20442;-68
2023/10/26 01:29:36;;;;;;;49.25;27.17;;;10.30;99.90;;;;;;5055236;28;20107;-68
2023/10/26 01:32:02;;;;;;;50.10;28.13;;;10.30;99.90;;;;;;5054658;28;20120;-68
2023/10/26 01:34:30;;;;;;;49.78;28.15;;;10.30;99.90;;;;;;5054632;28;20072;-69
2023/10/26 01:36:55;;;;;;;46.30;27.23;;;10.40;99.90;;;;;;5055067;28;20052;-68
2023/10/26 01:39:21;;;;;;;46.97;26.27;;;10.40;99.90;;;;;;5055049;28;20029;-68
2023/10/26 01:41:47;;;;;;;46.22;25.20;;;10.40;99.90;;;;;;5054015;28;20037;-68
2023/10/26 01:44:12;;;;;;;41.30;23.50;;;10.20;99.90;;;;;;5055013;28;20021;-68
2023/10/26 01:46:38;;;;;;;43.63;25.05;;;10.30;99.90;;;;;;5054655;28;20163;-68
2023/10/26 01:49:04;;;;;;;41.08;24.48;;;10.30;99.90;;;;;;5054623;28;20383;-68
2023/10/26 01:51:29;;;;;;;45.53;23.92;;;10.30;99.90;;;;;;5054918;28;20464;-68
2023/10/26 01:53:55;;;;;;;41.97;24.02;;;10.20;99.90;;;;;;5054728;28;20112;-68
2023/10/26 01:56:20;;;;;;;43.83;23.90;;;10.30;99.90;;;;;;5054462;28;20520;-68
2023/10/26 01:58:46;;;;;;;41.58;24.20;;;10.30;99.90;;;;;;5053729;28;20075;-68
2023/10/26 02:01:12;;;;;;;41.38;23.73;;;10.20;99.90;;;;;;5054359;28;20047;-68
2023/10/26 02:03:38;;;;;;;41.90;24.10;;;10.30;99.90;;;;;;5054172;28;20029;-68
2023/10/26 02:06:04;;;;;;;41.50;23.63;;;10.20;99.90;;;;;;5054240;28;20102;-68
2023/10/26 02:08:29;;;;;;;42.83;24.20;;;10.30;99.90;;;;;;5054651;28;20036;-68
2023/10/26 02:10:55;;;;;;;42.22;23.90;;;10.30;99.90;;;;;;5054117;28;20539;-68
2023/10/26 02:13:20;;;;;;;43.60;24.25;;;10.30;99.90;;;;;;5054054;28;20025;-68
2023/10/26 02:15:46;;;;;;;42.85;23.98;;;10.30;99.90;;;;;;5054303;28;20025;-68
2023/10/26 02:18:11;;;;;;;43.28;23.70;;;10.20;99.90;;;;;;5053643;28;20021;-68
2023/10/26 02:20:37;;;;;;;46.08;24.65;;;10.20;99.90;;;;;;5054223;28;20028;-68
2023/10/26 02:23:03;;;;;;;41.03;24.27;;;10.30;99.90;;;;;;5053980;28;20036;-68
2023/10/26 02:25:28;;;;;;;40.30;24.30;;;10.20;99.90;;;;;;5053538;28;20025;-68
2023/10/26 02:27:54;;;;;;;41.67;23.98;;;10.30;99.90;;;;;;5053818;28;20027;-68
2023/10/26 02:30:19;;;;;;;46.25;25.77;;;10.40;99.90;;;;;;5053983;28;20379;-68
2023/10/26 02:32:45;;;;;;;41.17;24.67;;;10.30;99.90;;;;;;5053939;28;20115;-69
2023/10/26 02:35:10;;;;;;;44.20;24.50;;;10.30;99.90;;;;;;5054221;28;20044;-69
2023/10/26 02:37:38;;;;;;;43.85;25.45;;;9.80;99.90;;;;;;5053738;28;20025;-68
2023/10/26 02:40:05;;;;;;;47.50;25.52;;;9.40;99.90;;;;;;5054100;28;20371;-68
2023/10/26 02:42:33;;;;;;;46.13;26.33;;;10.30;99.90;;;;;;5052683;28;20076;-68
2023/10/26 02:44:58;;;;;;;47.42;25.45;;;10.20;99.90;;;;;;5054157;28;20040;-68
2023/10/26 02:47:24;;;;;;;45.22;24.50;;;10.20;99.90;;;;;;5053785;28;20364;-68
2023/10/26 02:49:50;;;;;;;45.45;25.80;;;10.10;99.90;;;;;;5054122;28;20021;-68
2023/10/26 02:52:15;;;;;;;44.50;25.88;;;10.10;99.90;;;;;;5052952;28;20086;-68
2023/10/26 02:54:42;;;;;;;46.30;25.08;;;10.10;99.90;;;;;;5053525;28;20028;-68
2023/10/26 02:57:08;;;;;;;45.08;25.08;;;10.20;99.90;;;;;;5053505;28;20102;-68
2023/10/26 02:59:33;;;;;;;47.60;24.70;;;10.20;99.90;;;;;;5053870;28;20112;-68
2023/10/26 03:01:59;;;;;;;42.33;24.45;;;10.30;99.90;;;;;;5053714;28;20033;-68
2023/10/26 03:04:24;;;;;;;38.53;23.83;;;10.10;99.90;;;;;;5053751;28;20028;-68
2023/10/26 03:06:50;;;;;;;42.38;23.77;;;10.20;99.90;;;;;;5053918;28;20028;-68
2023/10/26 03:09:16;;;;;;;37.78;22.45;;;10.10;99.90;;;;;;5053737;28;20021;-68
2023/10/26 03:11:42;;;;;;;42.00;23.52;;;10.10;99.90;;;;;;5053439;28;20477;-68
2023/10/26 03:14:07;;;;;;;42.13;24.10;;;10.20;99.90;;;;;;5053893;28;20037;-68
2023/10/26 03:16:33;;;;;;;41.08;23.08;;;10.20;99.90;;;;;;5053283;28;20045;-68
2023/10/26 03:18:59;;;;;;;40.00;23.25;;;10.00;99.90;;;;;;5053499;28;20033;-68
2023/10/26 03:21:24;;;;;;;40.20;23.25;;;10.20;99.90;;;;;;5053605;28;20114;-68
2023/10/26 03:23:53;;;;;;;40.28;23.75;;;10.30;99.90;;;;;;5055036;28;20045;-69
2023/10/26 03:26:19;;;;;;;36.28;22.75;;;10.10;99.90;;;;;;5057063;28;20032;-68
2023/10/26 03:28:46;;;;;;;41.90;23.08;;;10.10;99.90;;;;;;5057135;28;20029;-68
2023/10/26 03:31:11;;;;;;;36.03;23.48;;;10.10;99.90;;;;;;5057008;28;20470;-68
2023/10/26 03:33:37;;;;;;;38.72;22.65;;;10.10;99.90;;;;;;5057315;28;20036;-68
2023/10/26 03:36:03;;;;;;;41.35;23.52;;;10.10;99.90;;;;;;5057199;28;20036;-68
2023/10/26 03:38:29;;;;;;;41.20;23.90;;;10.10;99.90;;;;;;5057259;28;20049;-68
2023/10/26 03:40:55;;;;;;;38.78;23.67;;;10.10;99.90;;;;;;5056479;28;20095;-68
2023/10/26 03:43:20;;;;;;;40.45;24.60;;;10.30;99.90;;;;;;5057328;28;20359;-68
2023/10/26 03:45:46;;;;;;;40.95;24.15;;;10.20;99.90;;;;;;5057135;28;20086;-68
2023/10/26 03:48:12;;;;;;;41.95;24.30;;;10.20;99.90;;;;;;5056664;28;20021;-68
2023/10/26 03:50:37;;;;;;;40.80;23.42;;;10.20;99.90;;;;;;5056354;28;20490;-68
2023/10/26 03:53:03;;;;;;;40.97;23.35;;;10.10;99.90;;;;;;5055851;28;20029;-68
2023/10/26 03:55:29;;;;;;;40.40;23.70;;;10.10;99.90;;;;;;5057123;28;20082;-68
2023/10/26 03:57:54;;;;;;;42.13;23.98;;;10.10;99.90;;;;;;5056688;28;20467;-69
2023/10/26 04:00:20;;;;;;;40.72;23.08;;;10.10;99.90;;;;;;5056534;28;20028;-67
2023/10/26 04:02:45;;;;;;;43.53;24.60;;;10.10;99.90;;;;;;5056100;28;20041;-68
2023/10/26 04:05:12;;;;;;;42.95;23.13;;;10.20;99.90;;;;;;5056319;28;20025;-68
2023/10/26 04:07:38;;;;;;;44.05;23.58;;;10.10;99.90;;;;;;5056609;28;20418;-68
2023/10/26 04:10:06;;;;;;;39.55;23.35;;;10.20;99.90;;;;;;5056903;28;20021;-68
2023/10/26 04:12:31;;;;;;;39.00;23.30;;;10.10;99.90;;;;;;5056195;28;20059;-68
2023/10/26 04:14:57;;;;;;;42.85;24.05;;;10.10;99.90;;;;;;5056447;28;20494;-66
2023/10/26 04:17:22;;;;;;;39.95;22.55;;;10.20;99.90;;;;;;5056600;28;20048;-66
2023/10/26 04:19:48;;;;;;;39.63;23.63;;;10.20;99.90;;;;;;5056423;28;20075;-67
2023/10/26 04:22:13;;;;;;;42.35;24.27;;;10.10;99.90;;;;;;5056334;28;20108;-68
2023/10/26 04:24:39;;;;;;;37.42;22.77;;;10.20;99.90;;;;;;5056296;28;20025;-72
2023/10/26 04:27:04;;;;;;;39.45;22.85;;;10.10;99.90;;;;;;5055831;28;20029;-68
2023/10/26 04:29:30;;;;;;;42.08;24.05;;;10.20;99.90;;;;;;5055890;28;20040;-68
2023/10/26 04:31:56;;;;;;;40.45;23.90;;;10.10;99.90;;;;;;5055851;28;20040;-68
2023/10/26 04:34:21;;;;;;;42.45;24.67;;;10.20;99.90;;;;;;5056044;28;20366;-68
2023/10/26 04:36:47;;;;;;;40.92;24.58;;;10.20;99.90;;;;;;5056149;28;20090;-68
2023/10/26 04:39:13;;;;;;;43.50;24.27;;;10.10;99.90;;;;;;5056067;28;20064;-68
2023/10/26 04:41:39;;;;;;;40.60;23.50;;;10.10;99.90;;;;;;5055330;28;20052;-68
2023/10/26 04:44:05;;;;;;;40.03;23.67;;;10.20;99.90;;;;;;5055450;28;20112;-68
2023/10/26 04:46:31;;;;;;;43.55;24.08;;;10.10;99.90;;;;;;5055601;28;20060;-68
2023/10/26 04:48:57;;;;;;;43.38;23.85;;;10.20;99.90;;;;;;5055427;28;20025;-68
2023/10/26 04:51:22;;;;;;;44.80;25.48;;;10.20;99.90;;;;;;5056012;28;20090;-68
2023/10/26 04:53:49;;;;;;;41.13;25.42;;;10.20;99.90;;;;;;5055976;28;20037;-68
2023/10/26 04:56:15;;;;;;;45.90;26.50;;;10.20;99.90;;;;;;5055664;28;20025;-68
2023/10/26 04:58:43;;;;;;;50.47;27.70;;;10.30;99.90;;;;;;5055179;28;20036;-68
2023/10/26 05:01:09;;;;;;;46.83;26.17;;;10.30;99.90;;;;;;5055091;28;20498;-68
2023/10/26 05:03:34;;;;;;;51.50;28.27;;;10.20;99.90;;;;;;5055852;28;20017;-68
2023/10/26 05:06:00;;;;;;;57.00;27.55;;;10.20;99.90;;;;;;5055325;28;20052;-68
2023/10/26 05:08:25;;;;;;;50.70;27.80;;;10.30;99.90;;;;;;5055458;28;20029;-68
2023/10/26 05:10:51;;;;;;;54.05;27.98;;;10.30;99.90;;;;;;5055138;28;20025;-68
2023/10/26 05:13:16;;;;;;;49.28;27.58;;;10.30;99.90;;;;;;5054911;28;20467;-70
2023/10/26 05:15:44;;;;;;;53.25;28.75;;;10.30;99.90;;;;;;5054318;28;20028;-68
2023/10/26 05:18:09;;;;;;;52.25;28.90;;;10.30;99.90;;;;;;5055022;28;20066;-69
2023/10/26 05:20:35;;;;;;;54.67;29.33;;;10.30;99.90;;;;;;5055245;28;20028;-68
2023/10/26 05:23:02;;;;;;;53.42;30.23;;;10.30;99.90;;;;;;5054051;28;20068;-68
2023/10/26 05:25:28;;;;;;;53.90;30.13;;;10.20;99.90;;;;;;5055153;28;20526;-69
2023/10/26 05:27:53;;;;;;;54.83;30.80;;;10.20;99.90;;;;;;5055302;28;20067;-68
2023/10/26 05:30:19;;;;;;;55.90;31.52;;;10.20;99.90;;;;;;5055267;28;20032;-68
2023/10/26 05:32:44;;;;;;;56.80;31.05;;;10.20;99.90;;;;;;5055170;28;20029;-68
2023/10/26 05:35:10;;;;;;;53.95;30.65;;;10.20;99.90;;;;;;5054668;28;20032;-68
2023/10/26 05:37:36;;;;;;;57.33;32.17;;;10.20;99.90;;;;;;5053936;28;20056;-68
2023/10/26 05:40:04;;;;;;;58.10;31.95;;;10.20;99.90;;;;;;5055138;28;20167;-68
2023/10/26 05:42:30;;;;;;;58.38;31.45;;;10.40;99.90;;;;;;5053886;28;20518;-68
2023/10/26 05:44:56;;;;;;;60.03;31.85;;;10.30;99.90;;;;;;5055049;28;20033;-68
2023/10/26 05:47:22;;;;;;;58.50;31.20;;;10.30;99.90;;;;;;5054307;28;20025;-68
2023/10/26 05:49:48;;;;;;;56.67;31.13;;;10.20;99.90;;;;;;5054681;28;20357;-68
2023/10/26 05:52:13;;;;;;;62.45;34.65;;;10.30;99.90;;;;;;5053963;28;20033;-68
2023/10/26 05:54:39;;;;;;;60.58;31.98;;;10.30;99.90;;;;;;5054716;28;20068;-68
2023/10/26 05:57:04;;;;;;;65.78;32.58;;;10.20;99.90;;;;;;5054475;28;20043;-68
2023/10/26 05:59:30;;;;;;;52.13;30.17;;;10.40;99.90;;;;;;5054713;28;20028;-68
2023/10/26 06:01:55;;;;;;;58.28;31.55;;;10.20;99.90;;;;;;5053550;28;20120;-68
2023/10/26 06:04:21;;;;;;;63.78;32.20;;;10.20;99.90;;;;;;5054528;28;20036;-68
2023/10/26 06:06:46;;;;;;;58.60;31.80;;;10.20;99.90;;;;;;5054078;28;20044;-68
2023/10/26 06:09:12;;;;;;;54.42;30.15;;;10.40;99.90;;;;;;5054243;28;20376;-68
2023/10/26 06:11:38;;;;;;;55.30;30.52;;;10.40;99.90;;;;;;5053235;28;20106;-68
2023/10/26 06:14:04;;;;;;;57.65;31.38;;;10.30;99.90;;;;;;5053712;28;20025;-68
2023/10/26 06:16:29;;;;;;;60.53;31.52;;;10.30;99.90;;;;;;5053901;28;20082;-68
2023/10/26 06:18:55;;;;;;;54.72;30.05;;;10.40;99.90;;;;;;5054424;28;20036;-68
2023/10/26 06:21:21;;;;;;;58.58;31.35;;;10.20;99.90;;;;;;5053310;28;20111;-68
2023/10/26 06:23:46;;;;;;;57.70;30.70;;;10.20;99.90;;;;;;5054022;28;20387;-68
2023/10/26 06:26:12;;;;;;;56.63;30.95;;;10.30;99.90;;;;;;5054272;28;20029;-68
2023/10/26 06:28:38;;;;;;;55.25;31.42;;;10.20;99.90;;;;;;5054783;28;20022;-68
2023/10/26 06:31:11;;;;;;;57.65;30.52;;;10.20;99.90;;;;;;5062327;28;20029;-69
2023/10/26 06:33:38;;;;;;;54.30;30.73;;;10.20;99.90;;;;;;5067656;28;20024;-67
2023/10/26 06:36:04;;;;;;;58.95;29.83;;;10.30;99.90;;;;;;5056050;28;20021;-68
2023/10/26 06:38:29;;;;;;;60.22;30.60;;;10.20;99.90;;;;;;5054286;28;20470;-67
2023/10/26 06:40:55;;;;;;;59.78;31.00;;;10.30;99.90;;;;;;5066528;28;20040;-68
2023/10/26 06:43:23;;;;;;;53.17;29.95;;;10.30;99.90;;;;;;5071603;28;20537;-67
2023/10/26 06:45:48;;;;;;;57.33;29.88;;;10.30;99.90;;;;;;5068481;28;20025;-67
2023/10/26 06:48:14;;;;;;;53.22;29.42;;;10.30;99.90;;;;;;5054301;28;20093;-68
2023/10/26 06:50:39;;;;;;;53.15;29.05;;;10.40;99.90;;;;;;5071824;28;20497;-68
2023/10/26 06:53:05;;;;;;;58.65;30.83;;;10.30;99.90;;;;;;5064566;28;20037;-68
2023/10/26 06:55:33;;;;;;;54.75;29.98;;;10.30;99.90;;;;;;5053867;28;20048;-68
2023/10/26 06:57:59;;;;;;;59.30;31.83;;;10.30;99.90;;;;;;5057087;28;20040;-68
2023/10/26 07:00:25;;;;;;;55.55;30.17;;;10.30;99.90;;;;;;5058498;28;20033;-68
2023/10/26 07:02:50;;;;;;;57.30;31.35;;;10.30;99.90;;;;;;5066146;28;20433;-70
2023/10/26 07:05:16;;;;;;;58.78;31.75;;;10.40;99.90;;;;;;5073161;28;20025;-68
2023/10/26 07:07:42;;;;;;;56.38;31.38;;;10.30;99.90;;;;;;5097667;28;20496;-68
2023/10/26 07:10:14;;;;;;;64.90;32.42;;;10.30;99.90;;;;;;5087385;28;20060;-68
2023/10/26 07:12:40;;;;;;;56.92;32.10;;;10.50;99.90;;;;;;5077909;28;20021;-68
2023/10/26 07:15:06;;;;;;;62.25;31.90;;;10.40;99.90;;;;;;5075546;28;20513;-69
2023/10/26 07:17:34;;;;;;;62.95;33.72;;;10.50;99.90;;;;;;5074499;28;20025;-68
2023/10/26 07:20:02;;;;;;;61.20;33.50;;;10.40;99.90;;;;;;5073558;28;20079;-68
2023/10/26 07:22:27;;;;;;;60.25;32.92;;;10.40;99.90;;;;;;5072966;28;20033;-68
2023/10/26 07:24:53;;;;;;;59.35;33.83;;;10.40;99.90;;;;;;5064374;28;20078;-68
2023/10/26 07:27:19;;;;;;;65.28;34.65;;;10.50;99.90;;;;;;5075644;28;20035;-68
2023/10/26 07:29:46;;;;;;;63.45;34.78;;;10.40;99.90;;;;;;5057607;28;20363;-68
2023/10/26 07:32:12;;;;;;;59.50;33.70;;;10.50;99.90;;;;;;5057600;28;20474;-68
2023/10/26 07:34:37;;;;;;;66.28;34.83;;;10.60;99.90;;;;;;5070802;28;20035;-69
2023/10/26 07:37:03;;;;;;;61.75;34.65;;;10.50;99.90;;;;;;5065539;28;20044;-68
2023/10/26 07:39:31;;;;;;;66.32;35.08;;;10.60;99.90;;;;;;5063412;28;20107;-68
2023/10/26 07:41:57;;;;;;;66.80;35.55;;;10.50;99.90;;;;;;5075751;28;20073;-68
2023/10/26 07:44:22;;;;;;;69.38;35.60;;;10.70;99.90;;;;;;5071677;28;20028;-68
2023/10/26 07:46:48;;;;;;;67.63;35.25;;;10.60;99.90;;;;;;5076121;28;20025;-68
2023/10/26 07:49:13;;;;;;;72.22;37.13;;;10.50;99.90;;;;;;5076821;28;20082;-68
2023/10/26 07:51:39;;;;;;;68.07;36.80;;;10.50;99.90;;;;;;5076195;28;20064;-68
2023/10/26 07:54:04;;;;;;;67.85;38.05;;;10.70;99.90;;;;;;5072194;28;20025;-69
2023/10/26 07:56:30;;;;;;;67.32;37.40;;;10.70;99.90;;;;;;5075986;28;20432;-68
2023/10/26 07:58:55;;;;;;;75.28;39.30;;;10.50;99.90;;;;;;5075320;28;20436;-69
2023/10/26 08:01:21;;;;;;;66.60;37.15;;;10.70;99.90;;;;;;5076047;28;20024;-68
2023/10/26 08:03:48;;;;;;;70.90;36.30;;;10.70;99.90;;;;;;5077305;28;20035;-68
2023/10/26 08:06:14;;;;;;;73.38;37.10;;;10.50;99.90;;;;;;5076566;28;20471;-68
2023/10/26 08:08:40;;;;;;;74.13;37.92;;;10.70;99.90;;;;;;5061241;28;20025;-68
2023/10/26 08:11:08;;;;;;;69.20;38.42;;;10.70;99.90;;;;;;5056118;28;20162;-68
2023/10/26 08:13:34;;;;;;;78.50;39.67;;;10.70;99.90;;;;;;5060827;28;20016;-68
2023/10/26 08:16:00;;;;;;;74.35;36.67;;;10.70;99.90;;;;;;5069615;28;20502;-68
2023/10/26 08:18:26;;;;;;;68.90;37.45;;;10.70;99.90;;;;;;5067651;28;20075;-68
2023/10/26 08:20:52;;;;;;;70.07;36.70;;;10.80;99.90;;;;;;5075357;28;20382;-68
2023/10/26 08:23:18;;;;;;;74.07;39.35;;;10.80;99.90;;;;;;5070813;28;20115;-68
2023/10/26 08:25:43;;;;;;;76.05;38.58;;;10.80;99.90;;;;;;5074886;28;20059;-68
2023/10/26 08:28:09;;;;;;;70.47;39.38;;;10.80;99.90;;;;;;5062262;28;20119;-68
2023/10/26 08:30:35;;;;;;;72.15;38.10;;;10.80;99.90;;;;;;5060775;28;20021;-68
2023/10/26 08:33:04;;;;;;;68.97;39.15;;;10.90;99.90;;;;;;5074659;28;20119;-69
2023/10/26 08:35:30;;;;;;;73.72;39.83;;;11.00;99.90;;;;;;5069878;28;20059;-69
2023/10/26 08:37:55;;;;;;;71.53;37.92;;;11.00;99.90;;;;;;5076090;28;20402;-69
2023/10/26 08:40:21;;;;;;;79.28;39.20;;;11.00;99.90;;;;;;5073657;28;20028;-70
2023/10/26 08:42:47;;;;;;;73.78;39.83;;;10.90;99.90;;;;;;5070501;28;20035;-69
2023/10/26 08:45:20;;;;;;;74.72;39.97;;;10.90;99.90;;;;;;5056511;28;20079;-69
2023/10/26 08:47:50;;;;;;;75.72;39.40;;;10.90;99.90;;;;;;5075134;28;20475;-68
2023/10/26 08:50:19;;;;;;;78.88;41.38;;;10.90;99.90;;;;;;5054819;28;20032;-69
2023/10/26 08:52:45;;;;;;;79.00;41.97;;;10.90;99.90;;;;;;5058912;28;20107;-70
2023/10/26 08:55:10;;;;;;;73.38;39.85;;;10.80;99.90;;;;;;5075331;28;20060;-68
2023/10/26 08:57:47;;;;;;;68.93;37.22;;;10.90;99.90;;;;;;5074736;28;20111;-70
2023/10/26 09:00:13;;;;;;;71.65;39.78;;;11.00;99.90;;;;;;5070455;28;20035;-70
2023/10/26 09:02:39;;;;;;;70.30;39.10;;;10.90;99.90;;;;;;5074479;28;20029;-70
2023/10/26 09:05:08;;;;;;;69.82;38.42;;;10.90;99.90;;;;;;5058386;28;20029;-70
2023/10/26 09:07:34;;;;;;;69.93;37.63;;;10.90;99.90;;;;;;5073960;28;20025;-70
2023/10/26 09:09:59;;;;;;;66.00;36.83;;;10.90;99.90;;;;;;5072877;28;20489;-70
2023/10/26 09:12:25;;;;;;;66.53;36.60;;;11.00;99.90;;;;;;5070317;28;20028;-69
2023/10/26 09:15:00;;;;;;;66.68;36.33;;;10.90;99.90;;;;;;5063000;28;20029;-70
2023/10/26 09:17:27;;;;;;;72.97;38.42;;;11.10;99.90;;;;;;5067753;28;20037;-69
2023/10/26 09:19:53;;;;;;;69.43;38.88;;;11.20;99.90;;;;;;5063251;28;20048;-69
2023/10/26 09:22:33;;;;;;;58.58;34.65;;;11.20;99.90;;;;;;5062607;28;20029;-69
2023/10/26 09:25:07;;;;;;;59.58;33.33;;;11.30;99.90;;;;;;5059429;28;20025;-70
2023/10/26 09:27:33;;;;;;;53.53;32.85;;;11.30;99.90;;;;;;5074555;28;20024;-70
2023/10/26 09:29:59;;;;;;;52.17;32.63;;;11.10;99.90;;;;;;5064629;28;20123;-70
2023/10/26 09:32:32;;;;;;;53.42;32.75;;;11.10;99.90;;;;;;5062045;28;20119;-69
2023/10/26 09:34:57;;;;;;;53.80;33.08;;;11.10;99.90;;;;;;5072088;28;20386;-69
2023/10/26 09:37:23;;;;;;;52.05;31.73;;;11.10;99.90;;;;;;5074803;28;20032;-69
2023/10/26 09:39:50;;;;;;;49.75;30.55;;;11.20;99.90;;;;;;5068415;28;20040;-69
2023/10/26 09:42:16;;;;;;;42.75;29.02;;;11.20;99.90;;;;;;5055992;28;20136;-69
2023/10/26 09:44:42;;;;;;;45.53;28.92;;;11.20;99.90;;;;;;5059133;28;20364;-69
2023/10/26 09:47:08;;;;;;;44.50;28.02;;;11.10;99.90;;;;;;5070736;28;20108;-69
2023/10/26 09:49:34;;;;;;;46.67;29.42;;;11.10;99.90;;;;;;5065040;28;20054;-69
2023/10/26 09:52:00;;;;;;;44.47;28.42;;;11.10;99.90;;;;;;5074994;28;20518;-69
2023/10/26 09:54:29;;;;;;;44.53;27.65;;;11.10;99.90;;;;;;5072981;28;20024;-69
2023/10/26 09:59:54;;;;;;;43.00;27.20;;;11.00;99.90;;;;;;5063459;28;20396;-68
2023/10/26 10:02:20;;;;;;;42.78;26.85;;;11.00;99.90;;;;;;5050840;28;20399;-68
2023/10/26 10:04:47;;;;;;;44.03;28.08;;;11.00;99.90;;;;;;5050406;28;20037;-69
2023/10/26 10:07:16;;;;;;;43.85;27.70;;;11.00;99.90;;;;;;5067386;28;20029;-69
2023/10/26 10:10:05;;;;;;;48.50;28.00;;;11.00;99.90;;;;;;5068318;28;20021;-69
2023/10/26 10:12:32;;;;;;;45.60;28.65;;;11.00;99.90;;;;;;5052178;28;20052;-69
2023/10/26 10:15:03;;;;;;;48.97;29.27;;;11.00;99.90;;;;;;5050441;28;20029;-69
2023/10/26 10:17:49;;;;;;;46.80;28.52;;;11.00;99.90;;;;;;5059638;28;20021;-69
2023/10/26 10:22:55;;;;;;;47.25;29.45;;;11.00;99.90;;;;;;5111768;27;20109;-68
2023/10/26 10:25:23;;;;;;;53.53;30.92;;;10.70;99.90;;;;;;5105978;28;20027;-68
2023/10/26 10:30:30;;;;;;;56.97;32.22;;;10.90;99.90;;;;;;5069141;28;20186;-69
2023/10/26 10:32:57;;;;;;;53.47;31.35;;;10.90;99.90;;;;;;5050587;28;20025;-69
2023/10/26 10:38:20;;;;;;;53.72;31.17;;;11.00;99.90;;;;;;5107276;27;20108;-68
2023/10/26 10:41:06;;;;;;;55.47;30.25;;;10.80;99.90;;;;;;5090691;28;20024;-69
2023/10/26 10:43:34;;;;;;;54.13;30.65;;;10.80;99.90;;;;;;5090317;28;20425;-70
2023/10/26 10:46:21;;;;;;;56.60;30.05;;;10.70;99.90;;;;;;5090544;28;20089;-68
2023/10/26 10:49:00;;;;;;;61.10;30.95;;;10.70;99.90;;;;;;5090199;28;20123;-68
2023/10/26 10:51:29;;;;;;;58.55;31.73;;;10.70;99.90;;;;;;5086738;28;20025;-70
2023/10/26 10:53:56;;;;;;;62.55;32.08;;;10.80;99.90;;;;;;5088798;28;20033;-69
2023/10/26 10:56:23;;;;;;;56.70;31.75;;;10.70;99.90;;;;;;5088503;28;20657;-69
2023/10/26 10:58:50;;;;;;;65.10;32.90;;;10.70;99.90;;;;;;5090024;28;20504;-68
2023/10/26 11:01:19;;;;;;;57.92;32.13;;;10.70;99.90;;;;;;5090184;28;20054;-69
2023/10/26 11:03:45;;;;;;;67.15;34.47;;;10.70;99.90;;;;;;5084641;28;20485;-70
2023/10/26 11:06:15;;;;;;;66.60;34.25;;;10.70;99.90;;;;;;5089235;28;20039;-69
2023/10/26 11:08:41;;;;;;;68.72;35.20;;;10.70;99.90;;;;;;5089404;28;20498;-69
2023/10/26 11:11:06;;;;;;;68.03;33.28;;;10.80;99.90;;;;;;5088421;28;20035;-68
2023/10/26 11:13:32;;;;;;;74.03;35.53;;;10.70;99.90;;;;;;5089616;28;20028;-69
2023/10/26 11:15:58;;;;;;;74.43;35.75;;;10.70;99.90;;;;;;5089638;28;20474;-70
2023/10/26 11:18:23;;;;;;;76.55;36.42;;;10.80;99.90;;;;;;5090060;28;20031;-69
2023/10/26 11:20:49;;;;;;;74.22;37.63;;;10.80;99.90;;;;;;5089942;28;20033;-73
2023/10/26 11:23:21;;;;;;;75.95;36.83;;;10.70;99.90;;;;;;5090103;28;20583;-68
2023/10/26 11:25:46;;;;;;;81.85;37.63;;;10.70;99.90;;;;;;5087295;28;20048;-69
2023/10/26 11:28:12;;;;;;;80.78;37.78;;;10.70;99.90;;;;;;5088931;28;20116;-69
2023/10/26 11:30:49;;;;;;;83.60;39.78;;;10.70;99.90;;;;;;5088985;28;20024;-69
2023/10/26 11:33:31;;;;;;;90.20;39.35;;;10.70;99.90;;;;;;5101406;28;20077;-69
2023/10/26 11:35:57;;;;;;;97.60;40.70;;;10.70;99.90;;;;;;5105947;28;20044;-69
2023/10/26 11:38:23;;;;;;;97.68;40.80;;;10.60;99.90;;;;;;5089651;28;21443;-69
2023/10/26 11:40:48;;;;;;;105.78;45.88;;;10.60;99.90;;;;;;5088265;28;20020;-68
2023/10/26 11:43:14;;;;;;;113.28;47.25;;;10.60;99.90;;;;;;5085956;28;20379;-69
2023/10/26 11:45:47;;;;;;;110.72;45.38;;;10.60;99.90;;;;;;5088474;28;20103;-69
2023/10/26 11:48:26;;;;;;;102.68;42.45;;;10.60;99.90;;;;;;5081300;28;20067;-69
2023/10/26 11:50:53;;;;;;;114.80;47.20;;;10.70;99.90;;;;;;5073859;28;20036;-69
2023/10/26 11:53:22;;;;;;;121.85;49.70;;;10.70;99.90;;;;;;5075751;28;20109;-69
2023/10/26 11:55:49;;;;;;;119.93;50.90;;;10.50;99.90;;;;;;5074985;28;20032;-69
2023/10/26 11:58:14;;;;;;;130.13;55.45;;;10.60;99.90;;;;;;5075284;28;20492;-69
2023/10/26 12:00:42;;;;;;;142.45;55.38;;;10.50;99.90;;;;;;5074963;28;20099;-69
2023/10/26 12:03:07;;;;;;;132.75;54.50;;;10.50;99.90;;;;;;5075854;28;20384;-69
2023/10/26 12:05:33;;;;;;;132.43;55.00;;;10.50;99.90;;;;;;5074941;28;20028;-69
2023/10/26 12:07:59;;;;;;;131.73;55.42;;;10.60;99.90;;;;;;5075942;28;20025;-69
2023/10/26 12:10:25;;;;;;;126.32;54.97;;;10.70;99.90;;;;;;5074614;28;20128;-69
2023/10/26 12:12:51;;;;;;;129.50;55.15;;;10.70;99.90;;;;;;5075868;28;20040;-69
2023/10/26 12:15:18;;;;;;;119.90;53.92;;;11.10;99.90;;;;;;5075347;28;20032;-70
2023/10/26 12:17:43;;;;;;;113.75;51.05;;;11.10;99.90;;;;;;5075777;28;20029;-69
2023/10/26 12:20:09;;;;;;;107.22;50.28;;;11.20;99.90;;;;;;5075353;28;20021;-70
2023/10/26 12:22:35;;;;;;;102.55;50.15;;;11.30;99.90;;;;;;5075997;28;20113;-70
2023/10/26 12:25:06;;;;;;;97.50;47.22;;;12.40;99.90;;;;;;5075301;28;20039;-70
2023/10/26 12:27:32;;;;;;;92.28;45.85;;;11.30;99.90;;;;;;5075233;28;20131;-70
2023/10/26 12:29:58;;;;;;;90.38;46.25;;;11.40;99.90;;;;;;5075689;28;20072;-70
2023/10/26 12:32:24;;;;;;;89.35;46.45;;;11.50;99.90;;;;;;5075164;28;20098;-70
2023/10/26 12:34:49;;;;;;;84.03;44.95;;;11.60;99.90;;;;;;5074811;28;20119;-70